createdAt,value
2022-10-23T00:01:47.485Z,4.35
2022-10-23T00:04:17.863Z,4.40
2022-10-23T00:12:17.010Z,3.58
2022-10-23T00:14:46.846Z,3.78
2022-10-23T00:17:17.497Z,2.05
2022-10-23T00:19:44.901Z,2.45
2022-10-23T00:24:39.521Z,2.87
2022-10-23T00:27:07.045Z,2.72
2022-10-23T00:29:34.215Z,2.47
2022-10-23T00:32:03.363Z,2.50
2022-10-23T00:34:30.314Z,2.47
2022-10-23T00:39:24.457Z,2.75
2022-10-23T00:41:53.106Z,2.90
2022-10-23T00:44:23.199Z,2.47
2022-10-23T00:46:50.497Z,2.80
2022-10-23T00:49:20.686Z,3.13
2022-10-23T00:51:56.375Z,3.58
2022-10-23T00:54:27.437Z,3.20
2022-10-23T00:56:58.515Z,2.72
2022-10-23T00:59:26.113Z,2.50
2022-10-23T01:01:53.594Z,3.28
2022-10-23T01:04:21.368Z,3.70
2022-10-23T01:07:16.726Z,4.43
2022-10-23T01:10:11.934Z,4.22
2022-10-23T01:12:55.732Z,3.78
2022-10-23T01:15:48.646Z,3.08
2022-10-23T01:18:26.225Z,3.92
2022-10-23T01:21:03.194Z,3.78
2022-10-23T01:24:03.739Z,3.45
2022-10-23T01:27:17.177Z,2.65
2022-10-23T01:29:51.811Z,3.08
2022-10-23T01:32:51.273Z,2.90
2022-10-23T01:35:34.537Z,4.18
2022-10-23T01:38:22.823Z,3.10
2022-10-23T01:41:03.890Z,3.05
2022-10-23T01:43:42.434Z,2.60
2022-10-23T01:46:14.801Z,3.30
2022-10-23T01:48:46.119Z,3.10
2022-10-23T01:51:15.694Z,2.90
2022-10-23T01:53:46.766Z,3.33
2022-10-23T01:56:22.592Z,2.95
2022-10-23T01:58:53.184Z,3.10
2022-10-23T02:01:26.027Z,3.33
2022-10-23T02:03:55.801Z,3.03
2022-10-23T02:06:23.342Z,3.65
2022-10-23T02:08:50.604Z,3.10
2022-10-23T02:11:21.145Z,3.33
2022-10-23T02:14:07.873Z,3.38
2022-10-23T02:16:45.632Z,3.10
2022-10-23T02:19:33.352Z,2.58
2022-10-23T02:22:14.280Z,2.90
2022-10-23T02:24:53.381Z,3.53
2022-10-23T02:27:30.458Z,3.40
2022-10-23T02:30:11.010Z,2.58
2022-10-23T02:32:45.326Z,2.90
2022-10-23T02:35:13.739Z,2.80
2022-10-23T02:37:41.260Z,3.33
2022-10-23T02:40:09.636Z,3.60
2022-10-23T02:42:50.880Z,3.30
2022-10-23T02:45:29.891Z,3.95
2022-10-23T02:48:22.661Z,3.30
2022-10-23T02:51:10.859Z,3.20
2022-10-23T02:53:43.757Z,5.68
2022-10-23T02:56:21.943Z,3.80
2022-10-23T02:59:14.420Z,3.13
2022-10-23T03:02:09.160Z,3.53
2022-10-23T03:04:40.307Z,4.32
2022-10-23T03:07:19.733Z,3.60
2022-10-23T03:09:46.730Z,3.25
2022-10-23T03:12:14.415Z,3.88
2022-10-23T03:14:41.240Z,3.13
2022-10-23T03:17:08.229Z,3.42
2022-10-23T03:22:03.978Z,3.70
2022-10-23T03:24:30.783Z,3.70
2022-10-23T03:26:57.538Z,3.33
2022-10-23T03:29:30.685Z,3.88
2022-10-23T03:31:57.760Z,3.72
2022-10-23T03:34:24.579Z,3.60
2022-10-23T03:36:53.319Z,3.85
2022-10-23T03:39:20.830Z,3.95
2022-10-23T03:41:48.110Z,3.28
2022-10-23T03:44:16.639Z,4.53
2022-10-23T03:46:45.196Z,3.22
2022-10-23T03:51:44.282Z,4.70
2022-10-23T03:54:14.732Z,2.90
2022-10-23T03:56:44.418Z,2.60
2022-10-23T03:59:11.584Z,3.42
2022-10-23T04:01:38.562Z,2.63
2022-10-23T04:06:35.784Z,2.95
2022-10-23T04:09:05.170Z,3.22
2022-10-23T04:11:35.574Z,2.67
2022-10-23T04:14:03.703Z,3.35
2022-10-23T04:16:30.456Z,3.78
2022-10-23T04:18:57.146Z,3.05
2022-10-23T04:21:23.935Z,4.15
2022-10-23T04:23:50.682Z,4.03
2022-10-23T04:26:18.587Z,4.43
2022-10-23T04:28:45.350Z,2.90
2022-10-23T04:31:12.160Z,3.20
2022-10-23T04:33:41.611Z,3.22
2022-10-23T04:36:08.891Z,4.18
2022-10-23T04:38:35.706Z,3.30
2022-10-23T04:41:03.563Z,3.45
2022-10-23T04:43:30.300Z,3.10
2022-10-23T04:45:57.592Z,3.25
2022-10-23T04:48:27.008Z,3.03
2022-10-23T04:51:14.736Z,3.30
2022-10-23T04:53:54.812Z,2.72
2022-10-23T04:56:44.571Z,3.20
2022-10-23T04:59:15.671Z,3.50
2022-10-23T05:04:10.180Z,2.88
2022-10-23T05:06:57.323Z,3.47
2022-10-23T05:09:39.986Z,2.85
2022-10-23T05:12:16.784Z,3.60
2022-10-23T05:14:43.724Z,3.08
2022-10-23T05:17:18.964Z,3.10
2022-10-23T05:19:54.342Z,3.47
2022-10-23T05:22:25.131Z,3.20
2022-10-23T05:24:54.420Z,3.95
2022-10-23T05:27:24.613Z,3.88
2022-10-23T05:29:53.750Z,3.55
2022-10-23T05:32:27.524Z,4.32
2022-10-23T05:34:55.391Z,3.13
2022-10-23T05:37:25.885Z,3.60
2022-10-23T05:40:01.608Z,3.25
2022-10-23T05:42:28.461Z,3.50
2022-10-23T05:44:57.250Z,3.28
2022-10-23T05:47:45.224Z,3.53
2022-10-23T05:50:47.154Z,4.25
2022-10-23T05:53:17.929Z,3.45
2022-10-23T05:56:06.626Z,3.25
2022-10-23T05:58:51.925Z,2.95
2022-10-23T06:01:42.586Z,3.50
2022-10-23T06:04:10.778Z,2.90
2022-10-23T06:07:10.248Z,2.65
2022-10-23T06:09:37.521Z,3.45
2022-10-23T06:12:04.884Z,2.90
2022-10-23T06:14:32.564Z,3.47
2022-10-23T06:16:59.371Z,3.55
2022-10-23T06:21:56.569Z,3.03
2022-10-23T06:24:33.925Z,3.42
2022-10-23T06:27:03.645Z,2.95
2022-10-23T06:29:38.931Z,3.55
2022-10-23T06:32:06.644Z,4.00
2022-10-23T06:37:00.964Z,4.07
2022-10-23T06:39:36.775Z,6.35
2022-10-23T06:42:09.456Z,7.90
2022-10-23T06:44:54.480Z,6.82
2022-10-23T06:47:44.924Z,6.75
2022-10-23T06:50:31.114Z,6.47
2022-10-23T06:53:00.006Z,5.43
2022-10-23T06:55:27.684Z,6.15
2022-10-23T07:00:21.606Z,6.78
2022-10-23T07:02:51.320Z,7.00
2022-10-23T07:05:19.346Z,4.97
2022-10-23T07:07:46.307Z,4.68
2022-10-23T07:10:18.555Z,4.15
2022-10-23T07:12:48.850Z,4.90
2022-10-23T07:15:41.861Z,4.18
2022-10-23T07:18:14.556Z,4.50
2022-10-23T07:21:05.222Z,4.00
2022-10-23T07:23:32.723Z,3.67
2022-10-23T07:26:08.733Z,3.47
2022-10-23T07:28:37.008Z,3.30
2022-10-23T07:31:03.817Z,3.22
2022-10-23T07:33:53.553Z,3.53
2022-10-23T07:36:21.494Z,2.85
2022-10-23T07:38:48.361Z,4.30
2022-10-23T07:41:15.799Z,4.93
2022-10-23T07:43:42.568Z,3.40
2022-10-23T07:46:09.878Z,3.90
2022-10-23T07:48:39.968Z,3.38
2022-10-23T07:51:11.616Z,3.83
2022-10-23T07:53:43.665Z,3.50
2022-10-23T07:56:32.159Z,3.38
2022-10-23T07:59:14.114Z,3.00
2022-10-23T08:01:44.139Z,3.92
2022-10-23T08:04:11.256Z,3.92
2022-10-23T08:06:46.746Z,3.25
2022-10-23T08:11:42.646Z,2.33
2022-10-23T08:14:13.991Z,2.55
2022-10-23T08:16:42.976Z,3.20
2022-10-23T08:19:29.627Z,2.57
2022-10-23T08:21:58.051Z,3.28
2022-10-23T08:24:24.984Z,2.33
2022-10-23T08:26:51.914Z,2.20
2022-10-23T08:29:22.593Z,2.47
2022-10-23T08:31:52.637Z,4.82
2022-10-23T08:34:26.921Z,2.63
2022-10-23T08:36:54.617Z,2.70
2022-10-23T08:39:21.635Z,3.55
2022-10-23T08:42:03.720Z,2.35
2022-10-23T08:44:44.977Z,2.60
2022-10-23T08:47:20.213Z,2.65
2022-10-23T08:50:34.910Z,3.03
2022-10-23T08:53:05.228Z,2.60
2022-10-23T08:55:40.456Z,2.60
2022-10-23T08:58:26.100Z,2.75
2022-10-23T09:00:52.898Z,2.35
2022-10-23T09:03:23.157Z,2.50
2022-10-23T09:06:12.498Z,2.90
2022-10-23T09:09:17.487Z,2.30
2022-10-23T09:12:00.888Z,3.00
2022-10-23T09:14:27.751Z,2.70
2022-10-23T09:17:15.795Z,2.75
2022-10-23T09:19:46.007Z,2.53
2022-10-23T09:22:13.427Z,3.17
2022-10-23T09:24:43.619Z,2.88
2022-10-23T09:27:16.992Z,3.33
2022-10-23T09:29:50.538Z,2.42
2022-10-23T09:32:18.550Z,2.95
2022-10-23T09:34:54.871Z,2.83
2022-10-23T09:37:23.553Z,2.13
2022-10-23T09:40:01.172Z,2.25
2022-10-23T09:42:29.607Z,2.78
2022-10-23T09:44:57.473Z,2.20
2022-10-23T09:47:25.777Z,1.90
2022-10-23T09:49:57.045Z,2.60
2022-10-23T09:52:32.408Z,2.83
2022-10-23T09:55:15.484Z,2.22
2022-10-23T09:57:44.879Z,2.45
2022-10-23T10:00:14.860Z,2.40
2022-10-23T10:02:44.019Z,2.47
2022-10-23T10:05:37.871Z,2.22
2022-10-23T10:08:29.830Z,2.60
2022-10-23T10:11:20.604Z,2.67
2022-10-23T10:14:21.709Z,2.70
2022-10-23T10:16:52.566Z,3.40
2022-10-23T10:19:34.482Z,2.90
2022-10-23T10:22:19.132Z,2.85
2022-10-23T10:25:02.885Z,3.20
2022-10-23T10:28:03.882Z,3.95
2022-10-23T10:30:45.384Z,3.22
2022-10-23T10:33:22.842Z,2.78
2022-10-23T10:36:02.407Z,2.35
2022-10-23T10:38:50.125Z,3.40
2022-10-23T10:41:35.677Z,3.10
2022-10-23T10:44:11.423Z,2.72
2022-10-23T10:46:58.632Z,2.75
2022-10-23T10:49:52.544Z,3.63
2022-10-23T10:53:00.740Z,3.63
2022-10-23T10:55:53.703Z,3.13
2022-10-23T10:58:43.268Z,3.88
2022-10-23T11:01:37.203Z,4.65
2022-10-23T11:04:40.603Z,4.25
2022-10-23T11:07:11.674Z,6.95
2022-10-23T11:09:39.295Z,6.43
2022-10-23T11:12:06.192Z,5.03
2022-10-23T11:14:34.400Z,3.00
2022-10-23T11:17:24.237Z,2.75
2022-10-23T11:20:00.118Z,3.97
2022-10-23T11:22:46.358Z,5.05
2022-10-23T11:25:30.713Z,5.28
2022-10-23T11:28:23.911Z,7.88
2022-10-23T11:31:02.612Z,5.68
2022-10-23T11:34:07.083Z,3.78
2022-10-23T11:36:44.915Z,2.85
2022-10-23T11:39:21.320Z,2.47
2022-10-23T11:41:56.562Z,2.63
2022-10-23T11:44:48.146Z,2.83
2022-10-23T11:47:30.767Z,2.30
2022-10-23T11:50:08.736Z,3.10
2022-10-23T11:52:45.581Z,3.15
2022-10-23T11:55:22.496Z,5.28
2022-10-23T11:58:07.583Z,6.80
2022-10-23T12:00:40.007Z,3.60
2022-10-23T12:03:19.422Z,1.85
2022-10-23T12:05:46.489Z,1.20
2022-10-23T12:08:26.412Z,1.65
2022-10-23T12:10:55.175Z,1.83
2022-10-23T12:13:37.335Z,2.10
2022-10-23T12:16:07.410Z,1.08
2022-10-23T12:18:47.672Z,1.20
2022-10-23T12:21:28.477Z,1.13
2022-10-23T12:24:34.584Z,1.70
2022-10-23T12:27:20.135Z,2.10
2022-10-23T12:30:19.747Z,1.35
2022-10-23T12:32:58.422Z,1.10
2022-10-23T12:36:00.895Z,0.93
2022-10-23T12:38:33.869Z,1.60
2022-10-23T12:41:12.726Z,1.33
2022-10-23T12:43:41.418Z,1.33
2022-10-23T12:46:30.087Z,5.53
2022-10-23T12:48:58.282Z,1.23
2022-10-23T12:51:27.995Z,1.50
2022-10-23T12:53:55.396Z,1.20
2022-10-23T12:56:22.354Z,1.38
2022-10-23T12:58:55.463Z,1.30
2022-10-23T13:01:31.103Z,1.38
2022-10-23T13:04:05.745Z,0.70
2022-10-23T13:06:32.745Z,1.20
2022-10-23T13:08:59.920Z,1.23
2022-10-23T13:11:40.175Z,1.20
2022-10-23T13:14:14.287Z,1.40
2022-10-23T13:16:41.086Z,1.15
2022-10-23T13:19:25.823Z,1.10
2022-10-23T13:21:52.650Z,1.38
2022-10-23T13:24:21.683Z,1.20
2022-10-23T13:26:49.049Z,1.17
2022-10-23T13:29:22.677Z,1.40
2022-10-23T13:31:50.984Z,1.40
2022-10-23T13:34:29.955Z,1.35
2022-10-23T13:37:01.347Z,1.30
2022-10-23T13:39:32.898Z,1.70
2022-10-23T13:42:21.973Z,1.50
2022-10-23T13:44:48.929Z,1.33
2022-10-23T13:47:16.942Z,1.52
2022-10-23T13:49:43.661Z,1.42
2022-10-23T13:52:13.930Z,1.30
2022-10-23T13:54:40.772Z,1.48
2022-10-23T13:57:14.634Z,1.40
2022-10-23T13:59:41.931Z,1.23
2022-10-23T14:02:23.107Z,1.15
2022-10-23T14:04:51.005Z,1.35
2022-10-23T14:07:18.058Z,1.20
2022-10-23T14:09:45.349Z,1.25
2022-10-23T14:12:12.432Z,1.02
2022-10-23T14:14:39.294Z,1.40
2022-10-23T14:17:06.244Z,1.30
2022-10-23T14:22:03.561Z,1.30
2022-10-23T14:24:30.283Z,1.40
2022-10-23T14:26:57.519Z,1.20
2022-10-23T14:29:24.671Z,1.40
2022-10-23T14:31:51.898Z,1.20
2022-10-23T14:34:19.122Z,2.55
2022-10-23T14:36:50.851Z,2.10
2022-10-23T14:39:23.613Z,2.10
2022-10-23T14:41:50.367Z,1.98
2022-10-23T14:44:17.065Z,2.65
2022-10-23T14:46:43.791Z,2.20
2022-10-23T14:49:10.664Z,2.05
2022-10-23T14:51:37.527Z,2.13
2022-10-23T14:54:06.098Z,1.67
2022-10-23T14:56:36.558Z,1.75
2022-10-23T14:59:04.348Z,1.40
2022-10-23T15:01:43.512Z,2.05
2022-10-23T15:04:14.312Z,2.05
2022-10-23T15:06:41.930Z,2.55
2022-10-23T15:09:09.044Z,1.92
2022-10-23T15:11:35.810Z,1.90
2022-10-23T15:14:03.300Z,1.98
2022-10-23T15:16:30.378Z,1.85
2022-10-23T15:18:57.178Z,1.80
2022-10-23T15:21:24.195Z,1.80
2022-10-23T15:23:51.173Z,4.60
2022-10-23T15:26:21.784Z,3.30
2022-10-23T15:29:00.833Z,1.90
2022-10-23T15:31:30.700Z,1.80
2022-10-23T15:33:58.109Z,2.22
2022-10-23T15:36:25.563Z,1.88
2022-10-23T15:38:52.547Z,1.88
2022-10-23T15:41:30.053Z,2.10
2022-10-23T15:43:58.959Z,1.42
2022-10-23T15:46:26.101Z,2.28
2022-10-23T15:48:53.159Z,2.10
2022-10-23T15:51:20.106Z,1.67
2022-10-23T15:53:47.274Z,1.70
2022-10-23T15:56:14.077Z,1.42
2022-10-23T15:58:40.804Z,1.88
2022-10-23T16:03:36.441Z,2.10
2022-10-23T16:06:09.179Z,3.58
2022-10-23T16:08:36.551Z,3.05
2022-10-23T16:11:04.180Z,2.30
2022-10-23T16:13:30.990Z,2.55
2022-10-23T16:15:57.725Z,2.58
2022-10-23T16:20:54.878Z,3.63
2022-10-23T16:23:22.306Z,5.45
2022-10-23T16:25:49.199Z,5.93
2022-10-23T16:28:16.056Z,4.70
2022-10-23T16:30:43.359Z,4.03
2022-10-23T16:33:10.263Z,8.40
2022-10-23T16:35:37.442Z,9.48
2022-10-23T16:38:12.225Z,7.28
2022-10-23T16:43:38.357Z,3.65
2022-10-23T16:46:21.237Z,3.97
2022-10-23T16:48:50.134Z,4.65
2022-10-23T16:51:20.083Z,4.07
2022-10-23T16:53:47.367Z,4.10
2022-10-23T16:56:16.378Z,5.55
2022-10-23T16:58:43.310Z,7.60
2022-10-23T17:01:13.192Z,9.73
2022-10-23T17:03:42.390Z,9.32
2022-10-23T17:06:12.441Z,7.28
2022-10-23T17:08:39.885Z,8.00
2022-10-23T17:11:29.941Z,6.63
2022-10-23T17:14:02.205Z,7.10
2022-10-23T17:16:31.169Z,8.95
2022-10-23T17:18:58.029Z,8.57
2022-10-23T17:21:24.829Z,8.82
2022-10-23T17:23:52.577Z,7.65
2022-10-23T17:26:21.783Z,9.27
2022-10-23T17:28:49.172Z,10.07
2022-10-23T17:31:28.644Z,8.70
2022-10-23T17:33:58.486Z,9.43
2022-10-23T17:36:27.022Z,8.55
2022-10-23T17:38:53.985Z,6.28
2022-10-23T17:41:22.887Z,5.68
2022-10-23T17:43:49.898Z,5.65
2022-10-23T17:46:17.961Z,4.43
2022-10-23T17:48:44.767Z,4.00
2022-10-23T17:53:41.831Z,3.50
2022-10-23T17:56:11.187Z,3.60
2022-10-23T17:58:38.644Z,3.03
2022-10-23T18:01:18.132Z,4.45
2022-10-23T18:03:45.003Z,4.32
2022-10-23T18:08:42.190Z,3.70
2022-10-23T18:11:21.194Z,3.72
2022-10-23T18:13:48.935Z,4.80
2022-10-23T18:16:16.296Z,4.07
2022-10-23T18:18:44.556Z,4.78
2022-10-23T18:21:11.316Z,4.35
2022-10-23T18:26:05.630Z,5.53
2022-10-23T18:28:32.797Z,5.05
2022-10-23T18:30:59.467Z,3.88
2022-10-23T18:33:26.642Z,4.63
2022-10-23T18:35:53.371Z,4.72
2022-10-23T18:40:54.394Z,5.72
2022-10-23T18:43:41.980Z,5.05
2022-10-23T18:46:08.147Z,4.32
2022-10-23T18:48:35.739Z,5.47
2022-10-23T18:51:02.492Z,3.70
2022-10-23T18:55:56.129Z,3.75
2022-10-23T18:58:23.022Z,4.32
2022-10-23T19:00:49.773Z,4.00
2022-10-23T19:05:46.801Z,8.25
2022-10-23T19:08:13.936Z,6.57
2022-10-23T19:10:43.848Z,5.93
2022-10-23T19:13:10.894Z,4.85
2022-10-23T19:15:38.228Z,4.78
2022-10-23T19:18:06.784Z,4.63
2022-10-23T19:20:33.965Z,4.20
2022-10-23T19:23:02.303Z,4.95
2022-10-23T19:25:32.936Z,6.18
2022-10-23T19:28:01.948Z,5.22
2022-10-23T19:30:31.685Z,5.97
2022-10-23T19:32:58.604Z,7.10
2022-10-23T19:35:25.535Z,6.28
2022-10-23T19:37:52.288Z,6.30
2022-10-23T19:42:46.608Z,5.18
2022-10-23T19:47:42.166Z,5.13
2022-10-23T19:50:10.392Z,5.00
2022-10-23T19:52:37.846Z,5.28
2022-10-23T19:55:06.411Z,6.35
2022-10-23T19:57:37.150Z,6.00
2022-10-23T20:00:08.909Z,5.07
2022-10-23T20:02:38.682Z,5.43
2022-10-23T20:05:07.064Z,4.47
2022-10-23T20:07:34.592Z,4.75
2022-10-23T20:10:01.575Z,4.82
2022-10-23T20:12:28.377Z,4.60
2022-10-23T20:17:22.697Z,5.22
2022-10-23T20:19:49.754Z,5.47
2022-10-23T20:22:17.012Z,5.25
2022-10-23T20:24:43.784Z,4.82
2022-10-23T20:29:38.600Z,5.83
2022-10-23T20:32:05.776Z,4.78
2022-10-23T20:34:32.547Z,5.43
2022-10-23T20:36:59.658Z,5.55
2022-10-23T20:39:29.532Z,5.45
2022-10-23T20:41:56.729Z,12.13
2022-10-23T20:44:23.775Z,8.48
2022-10-23T20:46:51.434Z,6.10
2022-10-23T20:49:19.051Z,6.95
2022-10-23T20:51:54.039Z,8.05
2022-10-23T20:54:26.844Z,7.47
2022-10-23T20:56:53.630Z,6.30
2022-10-23T21:01:49.923Z,7.47
2022-10-23T21:04:19.484Z,6.82
2022-10-23T21:07:08.294Z,7.55
2022-10-23T21:09:33.546Z,6.80
2022-10-23T21:14:27.297Z,7.43
2022-10-23T21:16:54.152Z,5.50
2022-10-23T21:21:47.810Z,7.07
2022-10-23T21:24:15.993Z,6.28
2022-10-23T21:26:44.587Z,7.28
2022-10-23T21:29:20.060Z,7.45
2022-10-23T21:32:03.336Z,7.88
2022-10-23T21:34:30.721Z,7.95
2022-10-23T21:37:14.613Z,8.38
2022-10-23T21:39:43.148Z,6.65
2022-10-23T21:42:11.441Z,6.78
2022-10-23T21:44:38.339Z,6.75
2022-10-23T21:49:32.145Z,6.90
2022-10-23T21:51:58.908Z,6.75
2022-10-23T21:56:53.958Z,6.32
2022-10-23T21:59:25.778Z,7.50
2022-10-23T22:01:54.823Z,7.63
2022-10-23T22:04:22.054Z,6.78
2022-10-23T22:06:50.152Z,6.97
2022-10-23T22:09:19.755Z,7.30
2022-10-23T22:11:51.351Z,7.63
2022-10-23T22:14:18.881Z,8.30
2022-10-23T22:16:46.174Z,7.63
2022-10-23T22:19:18.224Z,7.13
2022-10-23T22:21:45.273Z,7.10
2022-10-23T22:24:12.405Z,6.45
2022-10-23T22:26:42.142Z,5.93
2022-10-23T22:29:21.137Z,5.25
2022-10-23T22:31:49.805Z,5.75
2022-10-23T22:34:47.999Z,5.82
2022-10-23T22:37:11.311Z,6.32
2022-10-23T22:39:39.469Z,5.13
2022-10-23T22:42:06.753Z,4.50
2022-10-23T22:44:33.616Z,5.65
2022-10-23T22:49:27.115Z,5.18
2022-10-23T22:51:53.888Z,4.60
2022-10-23T22:56:47.591Z,4.88
2022-10-23T22:59:14.961Z,5.70
2022-10-23T23:01:44.762Z,5.18
2022-10-23T23:04:36.603Z,5.47
2022-10-23T23:06:59.794Z,5.05
2022-10-23T23:11:53.307Z,4.88
2022-10-23T23:16:52.304Z,4.25
2022-10-23T23:19:19.450Z,3.70
2022-10-23T23:21:46.428Z,3.75
2022-10-23T23:26:40.745Z,4.70
2022-10-23T23:29:07.572Z,4.55
2022-10-23T23:31:34.383Z,3.58
2022-10-23T23:34:01.188Z,4.90
2022-10-23T23:38:57.048Z,4.10
2022-10-23T23:41:24.572Z,4.00
2022-10-23T23:43:55.290Z,4.30
2022-10-23T23:46:22.512Z,3.40
2022-10-23T23:48:50.095Z,4.28
2022-10-23T23:51:19.166Z,3.80
2022-10-23T23:53:46.583Z,4.72
2022-10-23T23:56:13.976Z,4.70
2022-10-23T23:58:40.844Z,5.07
